createdAt,value
2023-01-28T00:01:06.952Z,10.00
2023-01-28T00:03:38.291Z,9.60
2023-01-28T00:06:08.808Z,9.70
2023-01-28T00:08:37.547Z,9.90
2023-01-28T00:11:08.479Z,9.70
2023-01-28T00:13:36.996Z,9.97
2023-01-28T00:16:08.807Z,10.00
2023-01-28T00:18:39.361Z,9.73
2023-01-28T00:21:11.474Z,9.33
2023-01-28T00:23:44.632Z,10.27
2023-01-28T00:26:14.586Z,10.47
2023-01-28T00:28:45.734Z,9.67
2023-01-28T00:31:17.248Z,9.40
2023-01-28T00:33:49.083Z,9.13
2023-01-28T00:36:18.958Z,9.57
2023-01-28T00:38:51.085Z,9.70
2023-01-28T00:41:22.065Z,9.90
2023-01-28T00:43:53.109Z,9.20
2023-01-28T00:46:22.678Z,8.97
2023-01-28T00:48:52.552Z,8.63
2023-01-28T00:51:21.753Z,8.87
2023-01-28T00:53:51.153Z,9.67
2023-01-28T00:56:20.822Z,9.97
2023-01-28T00:58:49.504Z,10.87
2023-01-28T01:01:20.324Z,9.97
2023-01-28T01:03:54.399Z,9.70
2023-01-28T01:06:26.355Z,9.70
2023-01-28T01:08:54.723Z,8.80
2023-01-28T01:11:23.199Z,9.70
2023-01-28T01:13:53.252Z,9.70
2023-01-28T01:16:22.060Z,9.23
2023-01-28T01:18:52.379Z,10.70
2023-01-28T01:21:23.047Z,9.77
2023-01-28T01:23:53.724Z,10.70
2023-01-28T01:26:23.671Z,10.27
2023-01-28T01:28:52.963Z,8.83
2023-01-28T01:31:23.134Z,9.13
2023-01-28T01:33:53.197Z,8.37
2023-01-28T01:36:22.388Z,9.00
2023-01-28T01:38:56.282Z,8.10
2023-01-28T01:41:28.462Z,7.97
2023-01-28T01:43:58.837Z,7.97
2023-01-28T01:46:35.029Z,7.93
2023-01-28T01:49:12.961Z,7.83
2023-01-28T01:51:41.982Z,7.70
2023-01-28T01:54:12.282Z,8.30
2023-01-28T01:56:45.862Z,8.33
2023-01-28T01:59:16.778Z,8.73
2023-01-28T02:01:46.815Z,8.33
2023-01-28T02:04:21.242Z,8.60
2023-01-28T02:06:50.221Z,8.87
2023-01-28T02:09:29.425Z,9.10
2023-01-28T02:12:04.033Z,8.63
2023-01-28T02:14:36.372Z,8.60
2023-01-28T02:17:05.471Z,8.60
2023-01-28T02:19:41.123Z,8.73
2023-01-28T02:22:41.488Z,9.10
2023-01-28T02:25:42.097Z,8.50
2023-01-28T02:28:22.563Z,8.33
2023-01-28T02:30:57.574Z,8.57
2023-01-28T02:33:32.281Z,8.70
2023-01-28T02:36:06.873Z,9.30
2023-01-28T02:38:42.885Z,8.47
2023-01-28T02:41:19.741Z,8.40
2023-01-28T02:43:51.833Z,8.67
2023-01-28T02:46:42.447Z,8.97
2023-01-28T02:49:17.469Z,9.67
2023-01-28T02:51:57.387Z,8.60
2023-01-28T02:54:34.803Z,8.73
2023-01-28T02:57:20.469Z,8.03
2023-01-28T02:59:56.798Z,8.07
2023-01-28T03:02:31.270Z,8.07
2023-01-28T03:05:05.102Z,7.17
2023-01-28T03:07:37.735Z,7.10
2023-01-28T03:10:09.203Z,6.37
2023-01-28T03:12:58.919Z,5.93
2023-01-28T03:15:51.014Z,5.70
2023-01-28T03:18:41.540Z,5.47
2023-01-28T03:21:32.234Z,5.30
2023-01-28T03:24:24.717Z,5.13
2023-01-28T03:27:20.070Z,5.20
2023-01-28T03:30:15.514Z,5.33
2023-01-28T03:33:05.351Z,5.13
2023-01-28T03:35:54.049Z,5.63
2023-01-28T03:38:23.610Z,5.13
2023-01-28T03:40:56.206Z,5.50
2023-01-28T03:43:25.308Z,5.47
2023-01-28T03:45:55.617Z,5.27
2023-01-28T03:48:27.983Z,5.33
2023-01-28T03:50:57.555Z,5.03
2023-01-28T03:53:28.479Z,5.20
2023-01-28T03:55:58.276Z,5.63
2023-01-28T03:58:46.416Z,5.53
2023-01-28T04:01:18.598Z,6.00
2023-01-28T04:03:48.467Z,5.37
2023-01-28T04:06:21.431Z,5.53
2023-01-28T04:08:59.334Z,5.20
2023-01-28T04:11:50.578Z,5.33
2023-01-28T04:14:25.226Z,4.90
2023-01-28T04:17:07.501Z,5.20
2023-01-28T04:19:38.227Z,5.10
2023-01-28T04:22:11.056Z,5.10
2023-01-28T04:24:40.678Z,5.33
2023-01-28T04:27:09.029Z,5.23
2023-01-28T04:29:37.458Z,5.20
2023-01-28T04:32:28.549Z,5.23
2023-01-28T04:35:23.159Z,5.27
2023-01-28T04:38:01.148Z,5.30
2023-01-28T04:40:34.115Z,5.30
2023-01-28T04:43:14.690Z,5.97
2023-01-28T04:45:54.921Z,5.50
2023-01-28T04:48:32.184Z,5.90
2023-01-28T04:51:22.032Z,5.43
2023-01-28T04:54:04.105Z,5.63
2023-01-28T04:56:34.197Z,5.47
2023-01-28T04:59:03.247Z,5.90
2023-01-28T05:01:33.242Z,5.90
2023-01-28T05:04:05.552Z,6.10
2023-01-28T05:06:37.455Z,5.77
2023-01-28T05:09:16.254Z,6.37
2023-01-28T05:11:45.112Z,6.03
2023-01-28T05:14:14.946Z,6.37
2023-01-28T05:17:03.669Z,6.43
2023-01-28T05:19:32.120Z,6.80
2023-01-28T05:22:02.894Z,6.40
2023-01-28T05:24:41.793Z,6.13
2023-01-28T05:27:11.017Z,6.17
2023-01-28T05:29:40.147Z,6.07
2023-01-28T05:32:09.786Z,5.80
2023-01-28T05:34:38.425Z,6.17
2023-01-28T05:37:13.709Z,5.77
2023-01-28T05:39:42.303Z,5.77
2023-01-28T05:42:10.805Z,6.00
2023-01-28T05:44:44.533Z,6.10
2023-01-28T05:47:36.265Z,5.30
2023-01-28T05:50:23.361Z,5.90
2023-01-28T05:53:13.468Z,6.10
2023-01-28T05:55:45.404Z,5.87
2023-01-28T05:58:13.880Z,5.73
2023-01-28T06:00:42.356Z,5.80
2023-01-28T06:03:13.997Z,5.77
2023-01-28T06:05:42.485Z,6.13
2023-01-28T06:08:10.884Z,6.60
2023-01-28T06:10:40.674Z,6.23
2023-01-28T06:13:09.015Z,6.17
2023-01-28T06:15:56.223Z,6.27
2023-01-28T06:18:27.192Z,6.33
2023-01-28T06:20:55.827Z,6.13
2023-01-28T06:23:24.286Z,6.27
2023-01-28T06:25:56.587Z,6.57
2023-01-28T06:28:27.609Z,6.67
2023-01-28T06:30:56.419Z,6.57
2023-01-28T06:33:24.889Z,6.53
2023-01-28T06:35:53.386Z,6.83
2023-01-28T06:38:22.056Z,7.10
2023-01-28T06:40:55.938Z,15.53
2023-01-28T06:43:30.656Z,12.77
2023-01-28T22:30:23.661Z,7.60
2023-01-28T22:32:52.235Z,7.73
2023-01-28T22:35:20.908Z,5.50
2023-01-28T22:37:49.479Z,5.40
2023-01-28T22:40:18.380Z,4.33
2023-01-28T22:42:46.905Z,4.87
2023-01-28T22:45:15.297Z,4.20
2023-01-28T22:47:46.131Z,3.80
2023-01-28T22:50:14.977Z,3.70
2023-01-28T22:52:43.613Z,4.00
2023-01-28T22:55:12.214Z,3.87
2023-01-28T22:57:40.517Z,3.70
2023-01-28T23:00:13.088Z,4.50
2023-01-28T23:02:49.739Z,4.63
2023-01-28T23:05:18.357Z,3.90
2023-01-28T23:07:46.733Z,4.60
2023-01-28T23:10:15.972Z,5.10
2023-01-28T23:12:46.137Z,5.63
2023-01-28T23:15:32.558Z,4.60
2023-01-28T23:18:20.070Z,4.83
2023-01-28T23:21:06.317Z,7.23
2023-01-28T23:23:52.218Z,7.20
2023-01-28T23:26:20.650Z,5.20
2023-01-28T23:28:48.995Z,5.27
2023-01-28T23:31:17.498Z,5.50
2023-01-28T23:33:47.315Z,5.80
2023-01-28T23:36:15.781Z,5.63
2023-01-28T23:38:44.197Z,5.97
2023-01-28T23:41:12.619Z,6.20
2023-01-28T23:43:43.465Z,6.90
2023-01-28T23:46:11.986Z,6.67
2023-01-28T23:48:41.570Z,4.30
2023-01-28T23:51:11.665Z,4.70
2023-01-28T23:53:40.167Z,4.60
2023-01-28T23:56:11.701Z,4.13
2023-01-28T23:58:44.124Z,4.90
